createdAt,value
2022-12-08T00:01:37.991Z,88.57
2022-12-08T00:04:09.937Z,88.29
2022-12-08T00:07:00.630Z,88.52
2022-12-08T00:09:38.719Z,88.34
2022-12-08T00:12:12.039Z,88.42
2022-12-08T00:14:45.384Z,88.41
2022-12-08T00:17:17.528Z,88.22
2022-12-08T00:19:50.472Z,88.39
2022-12-08T00:22:21.285Z,88.43
2022-12-08T00:24:52.506Z,88.46
2022-12-08T00:27:23.763Z,88.37
2022-12-08T00:29:54.654Z,88.41
2022-12-08T00:32:25.460Z,88.28
2022-12-08T00:34:56.318Z,88.24
2022-12-08T00:37:27.403Z,88.33
2022-12-08T00:39:58.404Z,88.25
2022-12-08T00:42:29.164Z,87.98
2022-12-08T00:45:00.084Z,88.14
2022-12-08T00:47:31.573Z,88.19
2022-12-08T00:50:03.002Z,87.99
2022-12-08T00:52:34.454Z,88.04
2022-12-08T00:55:06.063Z,87.85
2022-12-08T00:57:36.997Z,87.86
2022-12-08T01:00:09.780Z,87.85
2022-12-08T01:02:41.510Z,87.89
2022-12-08T01:05:12.547Z,87.96
2022-12-08T01:07:43.519Z,87.98
2022-12-08T01:10:14.448Z,87.80
2022-12-08T01:12:45.505Z,87.95
2022-12-08T01:15:16.704Z,87.76
2022-12-08T01:17:47.701Z,87.91
2022-12-08T01:20:18.987Z,87.87
2022-12-08T01:22:49.819Z,88.09
2022-12-08T01:25:20.807Z,87.96
2022-12-08T01:27:52.811Z,87.98
2022-12-08T01:30:24.341Z,88.08
2022-12-08T01:32:55.485Z,88.12
2022-12-08T01:35:26.585Z,88.11
2022-12-08T01:37:57.735Z,88.11
2022-12-08T01:40:28.722Z,88.11
2022-12-08T01:42:59.533Z,87.98
2022-12-08T01:45:32.659Z,88.03
2022-12-08T01:48:09.443Z,88.07
2022-12-08T01:50:44.130Z,88.11
2022-12-08T01:53:19.217Z,88.17
2022-12-08T01:55:54.185Z,88.02
2022-12-08T01:58:28.307Z,87.96
2022-12-08T02:00:59.748Z,87.96
2022-12-08T02:03:35.361Z,88.12
2022-12-08T02:06:07.119Z,88.27
2022-12-08T02:08:41.376Z,88.02
2022-12-08T02:11:13.719Z,88.29
2022-12-08T02:13:47.027Z,88.21
2022-12-08T02:16:34.098Z,88.38
2022-12-08T02:19:31.572Z,88.39
2022-12-08T02:22:08.692Z,88.39
2022-12-08T02:24:44.129Z,88.28
2022-12-08T02:27:37.092Z,88.37
2022-12-08T02:30:16.253Z,88.57
2022-12-08T02:33:10.567Z,88.57
2022-12-08T02:35:49.130Z,88.66
2022-12-08T02:38:28.503Z,88.54
2022-12-08T02:41:08.296Z,88.70
2022-12-08T02:43:43.970Z,88.81
2022-12-08T02:46:22.781Z,88.67
2022-12-08T02:48:56.808Z,88.85
2022-12-08T02:51:27.885Z,88.78
2022-12-08T02:53:59.825Z,89.00
2022-12-08T02:56:50.872Z,88.94
2022-12-08T02:59:34.375Z,89.08
2022-12-08T03:02:26.554Z,89.03
2022-12-08T03:05:06.552Z,89.18
2022-12-08T03:07:45.778Z,89.23
2022-12-08T03:10:26.571Z,89.35
2022-12-08T03:13:03.788Z,89.32
2022-12-08T03:15:36.492Z,89.38
2022-12-08T03:18:11.423Z,89.24
2022-12-08T03:20:45.660Z,89.41
2022-12-08T03:23:19.822Z,89.40
2022-12-08T03:25:56.044Z,89.44
2022-12-08T03:28:27.105Z,89.42
2022-12-08T03:31:03.727Z,89.52
2022-12-08T03:33:38.446Z,89.61
2022-12-08T03:36:12.342Z,89.69
2022-12-08T03:38:45.310Z,89.50
2022-12-08T03:41:19.547Z,89.74
2022-12-08T03:43:53.378Z,89.58
2022-12-08T03:48:56.787Z,89.71
2022-12-08T03:51:28.181Z,89.50
2022-12-08T03:53:59.210Z,89.78
2022-12-08T03:56:31.900Z,89.61
2022-12-08T03:59:02.942Z,89.74
2022-12-08T04:01:34.326Z,89.73
2022-12-08T04:04:05.506Z,89.77
2022-12-08T04:06:36.452Z,89.62
2022-12-08T04:09:07.522Z,89.89
2022-12-08T04:11:38.499Z,89.89
2022-12-08T04:14:09.386Z,89.78
2022-12-08T04:16:40.262Z,89.83
2022-12-08T04:19:11.191Z,89.97
2022-12-08T04:21:42.338Z,89.91
2022-12-08T04:24:13.454Z,89.93
2022-12-08T04:26:44.459Z,90.04
2022-12-08T04:29:15.481Z,89.85
2022-12-08T04:31:46.613Z,90.11
2022-12-08T04:34:16.139Z,89.99
2022-12-08T04:36:46.993Z,89.87
2022-12-08T04:39:18.048Z,89.93
2022-12-08T04:41:48.865Z,90.03
2022-12-08T04:44:19.970Z,89.77
2022-12-08T04:46:51.191Z,89.96
2022-12-08T04:49:22.593Z,89.79
2022-12-08T04:51:53.512Z,89.85
2022-12-08T04:54:24.486Z,89.81
2022-12-08T04:56:55.479Z,89.78
2022-12-08T04:59:26.608Z,89.70
2022-12-08T05:01:57.989Z,89.65
2022-12-08T05:04:27.795Z,89.72
2022-12-08T05:06:58.907Z,89.98
2022-12-08T05:09:30.120Z,89.84
2022-12-08T05:12:01.240Z,89.86
2022-12-08T05:14:32.284Z,89.88
2022-12-08T05:17:09.182Z,89.94
2022-12-08T05:19:39.322Z,89.88
2022-12-08T05:22:10.276Z,89.93
2022-12-08T05:24:47.060Z,90.10
2022-12-08T05:27:18.707Z,90.05
2022-12-08T05:29:50.250Z,90.01
2022-12-08T05:32:21.185Z,89.91
2022-12-08T05:34:52.172Z,90.00
2022-12-08T05:37:23.406Z,89.85
2022-12-08T05:39:54.383Z,89.84
2022-12-08T05:42:25.584Z,89.84
2022-12-08T05:44:56.493Z,90.03
2022-12-08T05:47:31.763Z,89.91
2022-12-08T05:50:07.821Z,89.74
2022-12-08T05:52:39.374Z,89.95
2022-12-08T05:55:11.449Z,89.98
2022-12-08T05:57:42.468Z,90.08
2022-12-08T06:00:15.081Z,90.08
2022-12-08T06:02:46.205Z,89.99
2022-12-08T06:05:17.436Z,89.97
2022-12-08T06:07:48.464Z,89.98
2022-12-08T06:10:19.839Z,89.84
2022-12-08T06:12:50.955Z,90.02
2022-12-08T06:15:22.027Z,90.07
2022-12-08T06:17:52.894Z,90.07
2022-12-08T06:20:23.905Z,89.85
2022-12-08T06:22:55.030Z,90.01
2022-12-08T06:25:26.505Z,89.89
2022-12-08T06:27:57.283Z,89.96
2022-12-08T06:30:28.816Z,89.96
2022-12-08T06:33:00.153Z,89.83
2022-12-08T06:35:29.743Z,89.79
2022-12-08T06:38:00.543Z,89.67
2022-12-08T06:40:31.828Z,89.70
2022-12-08T06:43:02.974Z,89.63
2022-12-08T06:45:34.191Z,89.42
2022-12-08T06:48:05.808Z,89.48
2022-12-08T06:50:36.835Z,89.56
2022-12-08T06:53:07.819Z,89.50
2022-12-08T06:58:29.866Z,89.30
2022-12-08T07:01:04.701Z,89.25
2022-12-08T07:03:35.572Z,89.24
2022-12-08T07:06:07.073Z,89.21
2022-12-08T07:08:36.530Z,89.36
2022-12-08T07:11:14.205Z,89.22
2022-12-08T07:13:47.498Z,89.16
2022-12-08T07:16:18.445Z,88.99
2022-12-08T07:18:49.328Z,88.90
2022-12-08T07:21:20.868Z,88.86
2022-12-08T07:23:57.415Z,88.84
2022-12-08T07:26:29.185Z,88.74
2022-12-08T07:29:00.961Z,88.58
2022-12-08T07:31:31.794Z,88.54
2022-12-08T07:34:03.034Z,88.56
2022-12-08T07:36:34.298Z,88.65
2022-12-08T07:39:05.591Z,88.61
2022-12-08T07:41:36.807Z,88.53
2022-12-08T07:44:07.823Z,88.37
2022-12-08T07:46:38.786Z,88.45
2022-12-08T07:49:09.790Z,88.38
2022-12-08T07:51:40.936Z,88.47
2022-12-08T07:54:14.066Z,88.22
2022-12-08T07:56:45.611Z,88.14
2022-12-08T07:59:16.443Z,88.12
2022-12-08T08:02:06.313Z,87.99
2022-12-08T08:04:39.344Z,88.11
2022-12-08T08:07:10.625Z,87.97
2022-12-08T08:09:41.578Z,87.86
2022-12-08T08:15:05.134Z,87.69
2022-12-08T08:17:36.850Z,87.77
2022-12-08T08:20:09.854Z,87.74
2022-12-08T08:22:40.829Z,87.59
2022-12-08T08:25:12.097Z,87.65
2022-12-08T08:27:41.768Z,87.48
2022-12-08T08:30:19.930Z,87.47
2022-12-08T08:32:52.427Z,87.50
2022-12-08T08:35:23.329Z,87.63
2022-12-08T08:37:54.497Z,87.52
2022-12-08T08:40:25.567Z,87.23
2022-12-08T08:42:56.359Z,87.28
2022-12-08T08:45:27.517Z,87.15
2022-12-08T08:47:59.055Z,86.89
2022-12-08T08:50:34.405Z,86.76
2022-12-08T08:53:08.235Z,86.79
2022-12-08T08:55:41.354Z,86.52
2022-12-08T08:58:12.430Z,86.45
2022-12-08T09:00:43.538Z,86.34
2022-12-08T09:03:13.857Z,86.40
2022-12-08T09:05:43.866Z,86.77
2022-12-08T09:08:15.061Z,86.60
2022-12-08T09:10:46.208Z,86.62
2022-12-08T09:13:17.109Z,86.53
2022-12-08T09:15:48.439Z,86.29
2022-12-08T09:18:17.981Z,86.11
2022-12-08T09:20:48.973Z,86.41
2022-12-08T09:23:20.033Z,86.36
2022-12-08T09:25:50.923Z,86.31
2022-12-08T09:28:22.037Z,86.24
2022-12-08T09:30:53.673Z,86.30
2022-12-08T09:33:24.895Z,86.17
2022-12-08T09:35:55.824Z,85.98
2022-12-08T09:38:26.736Z,86.04
2022-12-08T09:40:57.721Z,85.85
2022-12-08T09:43:46.677Z,85.82
2022-12-08T09:46:19.540Z,86.08
2022-12-08T09:48:56.115Z,85.82
2022-12-08T09:51:29.707Z,85.94
2022-12-08T09:54:04.986Z,86.06
2022-12-08T09:56:38.068Z,86.05
2022-12-08T09:59:23.063Z,86.12
2022-12-08T10:01:54.304Z,86.12
2022-12-08T10:04:28.312Z,85.94
2022-12-08T10:07:14.152Z,85.88
2022-12-08T10:09:52.613Z,85.78
2022-12-08T10:12:29.350Z,85.97
2022-12-08T10:15:11.944Z,85.89
2022-12-08T10:17:48.539Z,85.51
2022-12-08T10:20:21.631Z,85.70
2022-12-08T10:22:57.238Z,85.71
2022-12-08T10:25:36.350Z,85.51
2022-12-08T10:28:09.075Z,85.67
2022-12-08T10:30:40.702Z,85.78
2022-12-08T10:33:17.585Z,85.67
2022-12-08T10:35:50.833Z,85.62
2022-12-08T10:38:27.289Z,85.61
2022-12-08T10:41:05.827Z,85.60
2022-12-08T10:43:40.622Z,85.02
2022-12-08T10:46:14.172Z,84.85
2022-12-08T10:48:53.025Z,84.59
2022-12-08T10:51:39.824Z,84.45
2022-12-08T10:54:30.206Z,84.63
2022-12-08T10:57:01.292Z,84.38
2022-12-08T10:59:35.825Z,84.15
2022-12-08T11:02:19.368Z,84.12
2022-12-08T11:05:00.553Z,84.32
2022-12-08T11:07:32.088Z,84.51
2022-12-08T11:10:03.748Z,84.46
2022-12-08T11:12:36.724Z,84.28
2022-12-08T11:15:15.652Z,84.41
2022-12-08T11:17:53.329Z,84.43
2022-12-08T11:20:27.451Z,84.14
2022-12-08T11:22:57.456Z,84.00
2022-12-08T11:25:27.722Z,84.43
2022-12-08T11:28:00.802Z,84.21
2022-12-08T11:30:37.016Z,84.17
2022-12-08T11:33:17.300Z,84.15
2022-12-08T11:35:52.887Z,84.09
2022-12-08T11:38:25.976Z,84.09
2022-12-08T11:41:00.589Z,84.28
2022-12-08T11:43:40.669Z,84.13
2022-12-08T11:46:17.843Z,84.07
2022-12-08T11:48:52.731Z,83.99
2022-12-08T11:51:29.786Z,83.92
2022-12-08T11:54:12.498Z,84.18
2022-12-08T11:56:46.036Z,84.41
2022-12-08T11:59:24.850Z,83.98
2022-12-08T12:01:56.338Z,83.88
2022-12-08T12:04:34.181Z,83.83
2022-12-08T12:07:26.506Z,83.96
2022-12-08T12:10:17.051Z,83.49
2022-12-08T12:13:05.265Z,83.52
2022-12-08T12:16:15.006Z,83.11
2022-12-08T12:18:48.853Z,82.48
2022-12-08T12:21:23.611Z,82.07
2022-12-08T12:23:58.031Z,81.83
2022-12-08T12:26:32.114Z,81.58
2022-12-08T12:29:06.219Z,81.96
2022-12-08T12:31:41.569Z,81.50
2022-12-08T12:34:18.171Z,81.60
2022-12-08T12:36:53.119Z,81.82
2022-12-08T12:39:27.772Z,82.10
2022-12-08T12:42:00.860Z,82.30
2022-12-08T12:44:43.503Z,81.97
2022-12-08T12:47:36.824Z,81.23
2022-12-08T12:50:13.292Z,81.32
2022-12-08T12:52:49.132Z,81.44
2022-12-08T12:55:28.661Z,81.57
2022-12-08T12:58:04.601Z,81.93
2022-12-08T13:00:35.582Z,82.54
2022-12-08T13:03:14.672Z,82.95
2022-12-08T13:05:52.718Z,83.20
2022-12-08T13:08:27.060Z,83.41
2022-12-08T13:11:04.166Z,83.35
2022-12-08T13:13:35.817Z,83.24
2022-12-08T13:16:19.164Z,82.82
2022-12-08T13:18:53.141Z,82.11
2022-12-08T13:21:26.796Z,81.83
2022-12-08T13:24:28.052Z,82.35
2022-12-08T13:27:33.870Z,82.21
2022-12-08T13:30:51.178Z,82.86
2022-12-08T13:33:27.682Z,82.88
2022-12-08T13:36:12.040Z,82.09
2022-12-08T13:38:46.879Z,81.97
2022-12-08T13:41:23.072Z,81.88
2022-12-08T13:47:32.028Z,82.17
2022-12-08T13:58:42.306Z,83.02
2022-12-08T14:01:14.923Z,83.12
2022-12-08T14:04:22.121Z,83.46
2022-12-08T14:06:46.908Z,83.26
2022-12-08T14:09:21.993Z,83.31
2022-12-08T14:11:59.191Z,83.51
2022-12-08T14:17:26.246Z,83.81
2022-12-08T14:19:59.333Z,83.78
2022-12-08T14:22:36.559Z,83.98
2022-12-08T14:25:13.249Z,83.93
2022-12-08T14:27:45.088Z,84.04
2022-12-08T14:30:26.098Z,84.18
2022-12-08T14:32:59.406Z,84.27
2022-12-08T14:35:32.699Z,84.25
2022-12-08T14:38:05.870Z,84.33
2022-12-08T14:40:38.518Z,84.42
2022-12-08T14:43:17.566Z,84.01
2022-12-08T14:45:55.787Z,84.07
2022-12-08T14:48:29.013Z,84.00
2022-12-08T14:51:08.612Z,83.92
2022-12-08T14:53:42.678Z,84.21
2022-12-08T14:56:22.706Z,84.28
2022-12-08T14:59:06.057Z,84.48
2022-12-08T15:01:37.727Z,84.49
2022-12-08T15:04:16.375Z,84.47
2022-12-08T15:06:57.676Z,84.59
2022-12-08T15:09:37.138Z,84.73
2022-12-08T15:12:26.840Z,84.84
2022-12-08T15:15:00.697Z,84.80
2022-12-08T15:17:37.146Z,84.98
2022-12-08T15:20:31.678Z,84.94
2022-12-08T15:23:06.010Z,84.94
2022-12-08T15:25:36.107Z,85.19
2022-12-08T15:28:07.483Z,85.16
2022-12-08T15:30:36.713Z,85.26
2022-12-08T15:33:07.787Z,85.43
2022-12-08T15:35:40.959Z,85.32
2022-12-08T15:38:21.586Z,85.44
2022-12-08T15:40:52.605Z,85.41
2022-12-08T15:43:24.136Z,85.64
2022-12-08T15:45:59.451Z,85.79
2022-12-08T15:48:32.374Z,85.73
2022-12-08T15:51:03.596Z,85.47
2022-12-08T15:53:33.051Z,85.29
2022-12-08T15:58:59.538Z,85.46
2022-12-08T16:01:28.974Z,85.51
2022-12-08T16:09:46.659Z,85.60
2022-12-08T16:18:27.047Z,86.10
2022-12-08T16:21:12.510Z,86.18
2022-12-08T16:23:49.406Z,86.08
2022-12-08T16:29:20.675Z,86.18
2022-12-08T16:31:52.199Z,86.22
2022-12-08T16:34:23.353Z,86.20
2022-12-08T16:36:54.669Z,86.33
2022-12-08T16:39:24.045Z,86.60
2022-12-08T16:42:12.669Z,86.56
2022-12-08T16:44:44.176Z,86.36
2022-12-08T16:47:13.579Z,86.55
2022-12-08T16:49:44.518Z,86.54
2022-12-08T16:52:15.586Z,86.53
2022-12-08T16:54:46.569Z,86.60
2022-12-08T16:57:17.451Z,86.73
2022-12-08T16:59:48.601Z,86.60
2022-12-08T17:02:19.686Z,86.76
2022-12-08T17:04:51.029Z,86.76
2022-12-08T17:07:22.263Z,86.82
2022-12-08T17:09:53.165Z,86.68
2022-12-08T17:12:24.446Z,86.88
2022-12-08T17:14:55.329Z,86.88
2022-12-08T17:17:26.122Z,86.73
2022-12-08T17:19:57.338Z,86.73
2022-12-08T17:22:27.297Z,86.89
2022-12-08T17:24:58.426Z,86.85
2022-12-08T17:27:29.872Z,86.95
2022-12-08T17:30:00.833Z,86.83
2022-12-08T17:32:32.209Z,86.88
2022-12-08T17:35:01.825Z,86.81
2022-12-08T17:37:35.918Z,86.70
2022-12-08T17:40:09.996Z,86.87
2022-12-08T17:42:41.332Z,86.85
2022-12-08T17:45:11.560Z,87.02
2022-12-08T17:47:42.454Z,86.87
2022-12-08T17:50:13.704Z,86.90
2022-12-08T17:52:44.936Z,87.01
2022-12-08T17:55:15.935Z,86.86
2022-12-08T17:57:46.920Z,87.07
2022-12-08T18:00:18.864Z,86.90
2022-12-08T18:03:00.933Z,86.93
2022-12-08T18:05:35.339Z,86.71
2022-12-08T18:08:06.571Z,86.92
2022-12-08T18:10:38.459Z,86.92
2022-12-08T18:13:10.031Z,86.86
2022-12-08T18:15:41.305Z,86.96
2022-12-08T18:18:12.248Z,86.86
2022-12-08T18:20:43.287Z,86.64
2022-12-08T18:23:14.446Z,86.82
2022-12-08T18:25:45.757Z,86.64
2022-12-08T18:28:16.871Z,86.61
2022-12-08T18:30:46.618Z,86.85
2022-12-08T18:33:17.852Z,86.82
2022-12-08T18:35:49.003Z,86.70
2022-12-08T18:38:20.346Z,86.73
2022-12-08T18:40:51.491Z,86.85
2022-12-08T18:43:22.357Z,86.83
2022-12-08T18:46:01.152Z,86.94
2022-12-08T18:48:32.447Z,86.88
2022-12-08T18:51:03.408Z,86.91
2022-12-08T18:53:34.740Z,86.75
2022-12-08T18:56:05.930Z,86.85
2022-12-08T18:58:35.434Z,86.83
2022-12-08T19:01:06.910Z,86.82
2022-12-08T19:03:39.432Z,86.81
2022-12-08T19:06:10.991Z,86.86
2022-12-08T19:08:42.271Z,86.98
2022-12-08T19:11:19.415Z,86.77
2022-12-08T19:13:50.894Z,86.98
2022-12-08T19:16:22.024Z,86.78
2022-12-08T19:18:51.942Z,86.89
2022-12-08T19:21:24.551Z,86.88
2022-12-08T19:23:58.410Z,86.97
2022-12-08T19:26:30.097Z,86.81
2022-12-08T19:29:01.732Z,86.83
2022-12-08T19:31:32.880Z,86.74
2022-12-08T19:34:05.308Z,86.79
2022-12-08T19:36:42.321Z,86.99
2022-12-08T19:39:36.290Z,86.97
2022-12-08T19:42:31.132Z,86.92
2022-12-08T19:45:06.032Z,86.86
2022-12-08T19:47:37.358Z,86.87
2022-12-08T19:50:30.008Z,86.77
2022-12-08T19:53:01.896Z,86.72
2022-12-08T19:55:34.099Z,86.68
2022-12-08T19:58:06.119Z,86.64
2022-12-08T20:00:38.441Z,86.50
2022-12-08T20:03:10.618Z,86.49
2022-12-08T20:05:43.133Z,86.43
2022-12-08T20:08:14.424Z,86.63
2022-12-08T20:10:46.873Z,86.42
2022-12-08T20:13:34.918Z,86.40
2022-12-08T20:16:06.152Z,86.40
2022-12-08T20:18:36.884Z,86.54
2022-12-08T20:21:08.419Z,86.58
2022-12-08T20:23:39.803Z,86.70
2022-12-08T20:26:13.946Z,86.51
2022-12-08T20:28:45.703Z,86.49
2022-12-08T20:31:22.453Z,86.36
2022-12-08T20:33:53.929Z,86.54
2022-12-08T20:36:25.545Z,86.45
2022-12-08T20:38:57.545Z,86.74
2022-12-08T20:41:28.741Z,86.74
2022-12-08T20:43:59.645Z,86.85
2022-12-08T20:46:31.049Z,86.91
2022-12-08T20:49:03.954Z,86.92
2022-12-08T20:51:36.436Z,86.96
2022-12-08T20:54:09.907Z,87.01
2022-12-08T20:56:47.959Z,87.08
2022-12-08T20:59:20.512Z,87.08
2022-12-08T21:01:53.010Z,87.20
2022-12-08T21:04:24.710Z,87.19
2022-12-08T21:06:56.018Z,87.12
2022-12-08T21:09:27.212Z,87.17
2022-12-08T21:11:58.579Z,87.22
2022-12-08T21:14:29.787Z,87.24
2022-12-08T21:17:00.922Z,87.27
2022-12-08T21:19:32.192Z,87.26
2022-12-08T21:22:03.431Z,87.26
2022-12-08T21:24:34.683Z,87.25
2022-12-08T21:27:05.889Z,87.42
2022-12-08T21:29:37.103Z,87.20
2022-12-08T21:32:08.558Z,87.16
2022-12-08T21:34:40.058Z,87.21
2022-12-08T21:37:11.160Z,87.13
2022-12-08T21:39:42.185Z,87.05
2022-12-08T21:42:34.243Z,87.40
2022-12-08T21:45:06.479Z,87.26
2022-12-08T21:47:37.705Z,87.21
2022-12-08T21:50:11.728Z,87.28
2022-12-08T21:52:45.024Z,87.40
2022-12-08T21:55:19.030Z,87.40
2022-12-08T21:57:50.489Z,87.40
2022-12-08T22:00:24.248Z,87.19
2022-12-08T22:02:55.769Z,87.24
2022-12-08T22:05:27.007Z,87.16
2022-12-08T22:07:58.545Z,87.25
2022-12-08T22:10:28.037Z,86.97
2022-12-08T22:12:59.224Z,87.31
2022-12-08T22:15:30.001Z,87.02
2022-12-08T22:18:01.539Z,87.42
2022-12-08T22:20:31.153Z,87.24
2022-12-08T22:23:02.324Z,87.23
2022-12-08T22:25:33.761Z,87.33
2022-12-08T22:28:05.526Z,87.34
2022-12-08T22:30:39.211Z,87.21
2022-12-08T22:33:10.903Z,87.28
2022-12-08T22:35:42.109Z,87.15
2022-12-08T22:38:13.286Z,87.05
2022-12-08T22:40:44.299Z,86.94
2022-12-08T22:43:15.298Z,86.95
2022-12-08T22:45:46.397Z,87.23
2022-12-08T22:48:16.321Z,87.17
2022-12-08T22:50:47.283Z,87.01
2022-12-08T22:53:18.286Z,86.83
2022-12-08T22:55:49.726Z,86.94
2022-12-08T22:58:20.908Z,87.02
2022-12-08T23:00:52.165Z,87.03
2022-12-08T23:03:23.137Z,86.79
2022-12-08T23:05:54.346Z,86.78
2022-12-08T23:08:25.670Z,86.91
2022-12-08T23:10:57.506Z,86.91
2022-12-08T23:13:28.503Z,86.83
2022-12-08T23:15:59.354Z,86.80
2022-12-08T23:18:30.382Z,86.89
2022-12-08T23:21:05.807Z,86.73
2022-12-08T23:23:37.646Z,86.52
2022-12-08T23:26:14.978Z,86.60
2022-12-08T23:28:46.185Z,86.59
2022-12-08T23:31:17.872Z,86.56
2022-12-08T23:33:49.900Z,86.63
2022-12-08T23:36:22.046Z,86.70
2022-12-08T23:38:53.782Z,86.66
2022-12-08T23:41:24.986Z,86.51
2022-12-08T23:43:55.950Z,86.46
2022-12-08T23:46:27.383Z,86.56
2022-12-08T23:48:58.587Z,86.45
2022-12-08T23:51:29.682Z,86.46
2022-12-08T23:54:00.779Z,86.52
2022-12-08T23:56:31.649Z,86.48
2022-12-08T23:59:04.272Z,86.24
